createdAt,value
2019-03-15T00:00:19.658Z,54.10
2019-03-15T00:08:44.948Z,54.10
2019-03-15T00:17:09.778Z,55.00
2019-03-15T00:25:34.741Z,55.10
2019-03-15T00:33:59.616Z,54.90
2019-03-15T00:42:24.483Z,54.80
2019-03-15T00:50:49.292Z,54.70
2019-03-15T00:59:13.967Z,54.70
2019-03-15T01:07:39.026Z,54.50
2019-03-15T01:16:04.045Z,54.60
2019-03-15T01:24:28.917Z,54.40
2019-03-15T01:32:53.646Z,54.60
2019-03-15T01:41:18.176Z,54.50
2019-03-15T01:49:44.510Z,54.40
2019-03-15T01:58:10.144Z,54.20
2019-03-15T02:06:35.124Z,54.40
2019-03-15T02:15:00.356Z,54.40
2019-03-15T02:23:25.256Z,55.50
2019-03-15T02:31:50.321Z,55.60
2019-03-15T02:40:15.158Z,55.80
2019-03-15T02:48:40.880Z,56.20
2019-03-15T02:57:05.616Z,56.00
2019-03-15T03:05:30.427Z,56.30
2019-03-15T03:13:55.389Z,57.10
2019-03-15T03:22:20.456Z,56.80
2019-03-15T03:30:46.643Z,56.20
2019-03-15T03:39:11.232Z,56.10
2019-03-15T03:47:36.072Z,56.50
2019-03-15T03:56:02.314Z,56.90
2019-03-15T04:04:27.268Z,57.10
2019-03-15T04:12:51.782Z,57.50
2019-03-15T04:21:16.587Z,58.10
2019-03-15T04:29:41.442Z,58.50
2019-03-15T04:38:06.681Z,59.00
2019-03-15T04:46:32.387Z,59.10
2019-03-15T04:54:57.539Z,59.10
2019-03-15T05:03:22.415Z,59.70
2019-03-15T05:11:47.234Z,59.70
2019-03-15T05:20:12.951Z,61.30
2019-03-15T05:28:37.817Z,61.50
2019-03-15T05:37:02.779Z,62.20
2019-03-15T05:45:27.901Z,62.50
2019-03-15T05:53:52.668Z,63.70
2019-03-15T06:02:17.695Z,60.80
2019-03-15T06:10:42.148Z,57.20
2019-03-15T06:19:06.974Z,55.70
2019-03-15T06:27:32.216Z,54.50
2019-03-15T06:35:57.293Z,54.10
2019-03-15T06:44:22.069Z,53.50
2019-03-15T06:52:47.121Z,53.10
2019-03-15T07:01:13.982Z,52.90
2019-03-15T07:09:39.018Z,52.70
2019-03-15T07:18:03.763Z,52.80
2019-03-15T07:26:28.620Z,53.20
2019-03-15T07:34:53.727Z,53.20
2019-03-15T07:43:19.997Z,53.20
2019-03-15T07:51:44.597Z,53.20
2019-03-15T08:00:16.358Z,53.00
2019-03-15T08:08:41.278Z,53.30
2019-03-15T08:17:06.329Z,53.20
2019-03-15T08:25:31.130Z,54.00
2019-03-15T08:33:56.040Z,55.00
2019-03-15T08:42:21.540Z,55.20
2019-03-15T08:50:46.501Z,55.60
2019-03-15T08:59:11.282Z,55.80
2019-03-15T09:07:36.673Z,55.50
2019-03-15T09:16:01.718Z,56.30
2019-03-15T09:24:26.527Z,57.10
2019-03-15T09:32:51.561Z,57.60
2019-03-15T09:41:30.508Z,58.00
2019-03-15T09:49:42.601Z,58.40
2019-03-15T09:58:07.385Z,58.70
2019-03-15T10:06:31.908Z,59.20
2019-03-15T10:14:56.936Z,60.00
2019-03-15T10:23:21.606Z,60.70
2019-03-15T10:31:47.847Z,60.90
2019-03-15T10:40:23.712Z,60.70
2019-03-15T10:48:51.692Z,60.50
2019-03-15T10:57:17.038Z,60.50
2019-03-15T11:05:42.117Z,60.10
2019-03-15T11:14:06.861Z,60.00
2019-03-15T11:22:31.657Z,59.80
2019-03-15T11:30:56.506Z,59.60
2019-03-15T11:39:21.578Z,59.50
2019-03-15T11:48:02.032Z,59.50
2019-03-15T11:56:26.153Z,59.40
2019-03-15T12:04:40.012Z,59.40
2019-03-15T12:13:05.122Z,59.20
2019-03-15T12:21:30.257Z,59.20
2019-03-15T12:29:57.121Z,59.20
2019-03-15T12:38:22.268Z,59.20
2019-03-15T12:46:47.193Z,58.90
2019-03-15T12:55:15.447Z,58.80
2019-03-15T13:03:40.401Z,58.80
2019-03-15T13:12:05.376Z,58.50
2019-03-15T13:20:29.842Z,58.20
2019-03-15T13:28:54.651Z,58.30
2019-03-15T13:37:19.690Z,58.20
2019-03-15T13:45:44.906Z,57.90
2019-03-15T13:54:09.789Z,58.00
2019-03-15T14:02:34.706Z,58.00
2019-03-15T14:10:59.681Z,58.20
2019-03-15T14:19:24.555Z,57.70
2019-03-15T14:27:49.733Z,57.50
2019-03-15T14:36:14.573Z,57.30
2019-03-15T14:44:39.682Z,57.10
2019-03-15T14:53:04.611Z,57.00
2019-03-15T15:01:29.435Z,56.80
2019-03-15T15:09:54.406Z,56.70
2019-03-15T15:18:19.585Z,56.40
2019-03-15T15:26:44.243Z,56.30
2019-03-15T15:35:10.696Z,56.40
2019-03-15T15:43:35.958Z,56.30
2019-03-15T15:52:00.654Z,56.00
2019-03-15T16:00:25.838Z,55.90
2019-03-15T16:08:50.376Z,55.80
2019-03-15T16:17:14.915Z,55.20
2019-03-15T16:25:39.664Z,54.90
2019-03-15T16:34:04.702Z,54.20
2019-03-15T16:42:29.976Z,53.70
2019-03-15T16:50:54.513Z,53.70
2019-03-15T16:59:19.384Z,53.20
2019-03-15T17:07:44.249Z,53.10
2019-03-15T17:16:09.496Z,53.40
2019-03-15T17:24:34.880Z,53.30
2019-03-15T17:32:59.672Z,53.20
2019-03-15T17:41:24.751Z,53.40
2019-03-15T17:49:49.541Z,54.30
2019-03-15T17:58:14.639Z,54.70
2019-03-15T18:06:42.469Z,54.60
2019-03-15T18:15:10.167Z,55.20
2019-03-15T18:23:35.511Z,55.40
2019-03-15T18:32:02.483Z,55.40
2019-03-15T18:40:27.687Z,55.60
2019-03-15T18:48:52.981Z,55.50
2019-03-15T18:57:17.962Z,55.20
2019-03-15T19:05:43.354Z,55.20
2019-03-15T19:14:08.751Z,55.30
2019-03-15T19:22:34.281Z,55.20
2019-03-15T19:31:01.598Z,55.20
2019-03-15T19:39:27.122Z,55.20
2019-03-15T19:47:52.481Z,55.10
2019-03-15T19:56:18.943Z,55.80
2019-03-15T20:04:46.318Z,56.00
2019-03-15T20:13:12.977Z,56.00
2019-03-15T20:21:37.376Z,55.80
2019-03-15T20:30:20.121Z,55.50
2019-03-15T20:38:34.246Z,55.40
2019-03-15T20:46:59.888Z,55.10
2019-03-15T20:55:28.781Z,55.40
2019-03-15T21:03:56.320Z,56.10
2019-03-15T21:12:18.499Z,56.10
2019-03-15T21:20:43.458Z,56.20
2019-03-15T21:29:11.703Z,56.20
2019-03-15T21:37:35.865Z,57.00
2019-03-15T21:46:01.064Z,56.50
2019-03-15T21:54:26.259Z,56.80
2019-03-15T22:02:51.162Z,56.80
2019-03-15T22:11:21.487Z,56.90
2019-03-15T22:19:44.044Z,56.90
2019-03-15T22:28:09.015Z,57.10
2019-03-15T22:36:34.226Z,56.80
2019-03-15T22:44:58.974Z,57.10
2019-03-15T22:53:23.768Z,57.30
2019-03-15T23:01:49.055Z,57.40
2019-03-15T23:10:14.858Z,57.30
2019-03-15T23:18:39.654Z,57.50
2019-03-15T23:27:04.902Z,57.70
2019-03-15T23:35:29.778Z,57.50
2019-03-15T23:43:54.877Z,58.30
2019-03-15T23:52:19.753Z,58.10
